Time;durP1;ratioP1;P1;durP2;ratioP2;P2;SDS_P1;SDS_P2;PMS_P1;PMS_P2;Temp;Humidity;BMP_temperature;BMP_pressure;BME280_temperature;BME280_humidity;BME280_pressure;Samples;Min_cycle;Max_cycle;Signal;HPM_P1;HPM_P2
2024/01/27 00:02:35;;;;;;;26.50;2.72;;;11.70;99.90;;;;;;10518290;28;20764;-57
2024/01/27 00:07:37;;;;;;;24.25;3.05;;;11.50;99.90;;;;;;10522231;28;20059;-58
2024/01/27 00:12:41;;;;;;;21.58;3.17;;;11.00;99.90;;;;;;10530142;28;20054;-56
2024/01/27 00:17:43;;;;;;;24.38;2.67;;;10.70;99.90;;;;;;10516695;28;20059;-58
2024/01/27 00:22:45;;;;;;;24.48;3.33;;;9.60;99.90;;;;;;10525230;28;20306;-58
2024/01/27 00:27:49;;;;;;;23.52;2.97;;;10.20;99.90;;;;;;10530012;28;20177;-58
2024/01/27 00:32:51;;;;;;;28.23;4.65;;;10.90;99.90;;;;;;10531594;28;20051;-57
2024/01/27 00:37:54;;;;;;;20.65;3.00;;;11.50;99.90;;;;;;10533689;28;20434;-56
2024/01/27 00:42:58;;;;;;;30.38;4.53;;;12.00;99.90;;;;;;10532188;28;20089;-56
2024/01/27 00:48:01;;;;;;;20.17;2.75;;;11.70;99.90;;;;;;10532544;28;20127;-57
2024/01/27 00:53:03;;;;;;;24.83;3.17;;;11.90;99.90;;;;;;10534942;28;20532;-59
2024/01/27 00:58:08;;;;;;;16.70;2.80;;;12.00;99.90;;;;;;10538263;28;20043;-56
2024/01/27 01:03:10;;;;;;;13.13;2.97;;;12.60;99.90;;;;;;10540605;28;20116;-58
2024/01/27 01:08:12;;;;;;;14.70;2.63;;;13.00;99.90;;;;;;10527579;28;20689;-57
2024/01/27 01:13:16;;;;;;;11.17;1.73;;;13.00;99.90;;;;;;10525141;28;20056;-58
2024/01/27 01:18:18;;;;;;;6.28;1.75;;;13.40;99.90;;;;;;10534064;28;20048;-58
2024/01/27 01:23:20;;;;;;;12.97;2.10;;;13.60;99.90;;;;;;10533661;28;20062;-57
2024/01/27 01:28:23;;;;;;;8.37;1.57;;;13.80;99.90;;;;;;10535851;28;20059;-57
2024/01/27 01:33:25;;;;;;;5.20;1.60;;;13.80;99.90;;;;;;10537148;28;20044;-56
2024/01/27 01:38:27;;;;;;;12.25;2.53;;;13.90;99.90;;;;;;10538391;28;20048;-57
2024/01/27 01:43:31;;;;;;;10.75;2.40;;;13.90;99.90;;;;;;10530980;27;20871;-57
2024/01/27 01:48:34;;;;;;;13.43;2.67;;;13.40;99.90;;;;;;10533933;28;20043;-56
2024/01/27 01:53:37;;;;;;;19.35;2.30;;;13.10;99.90;;;;;;10533361;28;20047;-56
2024/01/27 01:58:40;;;;;;;18.60;2.20;;;12.80;99.90;;;;;;10532892;28;20050;-59
2024/01/27 02:03:55;;;;;;;18.63;3.22;;;13.00;99.90;;;;;;10534980;28;20051;-56
2024/01/27 02:08:57;;;;;;;21.08;2.22;;;13.00;99.90;;;;;;10529108;28;20526;-57
2024/01/27 02:14:01;;;;;;;18.77;3.13;;;13.00;99.90;;;;;;10528276;28;20051;-59
2024/01/27 02:19:03;;;;;;;16.98;2.38;;;13.10;99.90;;;;;;10532884;28;20619;-58
2024/01/27 02:24:10;;;;;;;22.55;2.60;;;13.10;99.90;;;;;;10525592;28;20134;-59
2024/01/27 02:29:12;;;;;;;10.32;2.22;;;13.10;99.90;;;;;;10531112;28;20139;-57
2024/01/27 02:34:14;;;;;;;15.00;2.63;;;13.10;99.90;;;;;;10527062;28;20067;-55
2024/01/27 02:39:18;;;;;;;15.80;2.25;;;13.10;99.90;;;;;;10532820;28;20407;-57
2024/01/27 02:44:22;;;;;;;17.33;2.50;;;13.00;99.90;;;;;;10530813;28;20513;-55
2024/01/27 02:49:25;;;;;;;16.52;3.05;;;13.30;99.90;;;;;;10525132;28;20051;-57
2024/01/27 02:54:28;;;;;;;13.87;2.43;;;13.30;99.90;;;;;;10533038;28;20521;-57
2024/01/27 02:59:30;;;;;;;14.00;3.05;;;13.20;99.90;;;;;;10528927;28;20052;-57
2024/01/27 03:04:32;;;;;;;10.63;2.77;;;13.10;99.90;;;;;;10524012;28;20047;-57
2024/01/27 03:09:36;;;;;;;11.63;3.47;;;13.00;99.90;;;;;;10525551;28;20048;-58
2024/01/27 03:14:38;;;;;;;19.17;4.00;;;12.70;99.90;;;;;;10519880;28;20217;-57
2024/01/27 03:19:40;;;;;;;17.77;3.03;;;12.60;99.90;;;;;;10523295;28;20048;-58
2024/01/27 03:24:43;;;;;;;5.70;1.70;;;13.00;99.90;;;;;;10522087;28;20056;-57
2024/01/27 03:29:45;;;;;;;13.70;3.47;;;13.10;99.90;;;;;;10522751;28;20827;-56
2024/01/27 03:34:47;;;;;;;18.07;3.67;;;12.70;99.90;;;;;;10520922;28;20051;-55
2024/01/27 03:39:51;;;;;;;5.72;3.08;;;13.00;99.90;;;;;;10527938;28;20509;-55
2024/01/27 03:44:53;;;;;;;6.75;2.05;;;13.00;99.90;;;;;;10521759;28;20119;-58
2024/01/27 03:49:55;;;;;;;16.83;4.53;;;13.10;99.90;;;;;;10518648;28;20059;-56
2024/01/27 03:54:59;;;;;;;31.80;6.43;;;13.10;99.90;;;;;;10523732;28;20145;-56
2024/01/27 04:15:37;;;;;;;20.77;4.43;;;13.30;99.90;;;;;;10587017;27;20630;-58
2024/01/27 04:20:39;;;;;;;21.77;4.40;;;13.20;99.90;;;;;;10561464;28;20046;-57
2024/01/27 04:25:41;;;;;;;18.23;5.10;;;12.60;99.90;;;;;;10558426;28;20225;-57
2024/01/27 04:30:44;;;;;;;13.23;3.93;;;12.80;99.90;;;;;;10555806;27;20525;-57
2024/01/27 04:35:46;;;;;;;17.52;5.43;;;13.00;99.90;;;;;;10558699;28;20047;-58
2024/01/27 04:40:49;;;;;;;15.10;4.87;;;12.70;99.90;;;;;;10556971;28;20851;-55
2024/01/27 04:45:52;;;;;;;;;;;12.40;99.90;;;;;;10557026;27;20055;-56
2024/01/27 04:50:56;;;;;;;17.33;5.53;;;12.40;99.90;;;;;;10562934;28;19928;-58
2024/01/27 04:55:58;;;;;;;9.00;3.78;;;12.70;99.90;;;;;;10558791;28;20051;-54
2024/01/27 05:01:02;;;;;;;10.90;2.87;;;12.60;99.90;;;;;;10556773;28;20055;-56
2024/01/27 05:06:04;;;;;;;19.23;4.22;;;12.80;99.90;;;;;;10553902;28;20047;-56
2024/01/27 05:11:07;;;;;;;17.48;4.88;;;12.90;99.90;;;;;;10561572;27;20104;-53
2024/01/27 05:16:11;;;;;;;16.30;4.75;;;12.90;99.90;;;;;;10558431;27;20651;-53
2024/01/27 05:21:12;;;;;;;11.52;3.92;;;12.80;99.90;;;;;;10560648;28;20615;-56
2024/01/27 05:26:14;;;;;;;20.38;3.97;;;12.60;99.90;;;;;;10535078;27;20813;-57
2024/01/27 05:31:18;;;;;;;16.17;2.97;;;12.90;99.90;;;;;;10531378;28;20914;-55
2024/01/27 05:36:20;;;;;;;12.05;3.90;;;13.40;99.90;;;;;;10532069;28;20058;-56
2024/01/27 05:41:27;;;;;;;13.37;4.47;;;13.60;99.90;;;;;;10533148;28;20100;-56
2024/01/27 05:46:30;;;;;;;20.27;4.00;;;13.30;99.90;;;;;;10529146;28;20041;-55
2024/01/27 05:51:33;;;;;;;11.05;3.53;;;13.40;99.90;;;;;;10530111;28;20494;-57
2024/01/27 05:56:36;;;;;;;9.07;4.25;;;13.50;99.90;;;;;;10533914;28;20047;-58
2024/01/27 06:01:40;;;;;;;22.92;4.55;;;13.50;99.90;;;;;;10528781;28;20138;-57
2024/01/27 06:06:43;;;;;;;16.40;4.97;;;13.50;99.90;;;;;;10530374;28;20059;-56
2024/01/27 06:11:45;;;;;;;13.90;3.77;;;13.40;99.90;;;;;;10529695;28;20054;-57
2024/01/27 06:16:51;;;;;;;12.10;3.90;;;13.50;99.90;;;;;;10520014;28;20492;-58
2024/01/27 06:21:53;;;;;;;15.65;5.70;;;13.20;99.90;;;;;;10523890;28;20043;-59
2024/01/27 06:26:55;;;;;;;14.25;4.10;;;13.20;99.90;;;;;;10529367;28;20055;-58
2024/01/27 06:31:59;;;;;;;19.87;5.27;;;13.20;99.90;;;;;;10523201;28;20048;-57
2024/01/27 06:37:01;;;;;;;21.42;5.43;;;12.80;99.90;;;;;;10522554;28;20055;-58
2024/01/27 06:42:03;;;;;;;15.80;4.63;;;12.60;99.90;;;;;;10528908;28;20110;-57
2024/01/27 06:47:06;;;;;;;14.90;5.22;;;12.90;99.90;;;;;;10521001;28;20473;-58
2024/01/27 06:52:09;;;;;;;14.82;5.18;;;13.20;99.90;;;;;;10524457;28;20047;-57
2024/01/27 06:57:19;;;;;;;11.02;3.78;;;12.50;99.90;;;;;;10522920;28;20040;-57
2024/01/27 07:02:26;;;;;;;16.23;4.93;;;12.80;99.90;;;;;;10517977;28;20058;-57
2024/01/27 07:07:29;;;;;;;17.17;5.75;;;13.10;99.90;;;;;;10518498;28;20399;-54
2024/01/27 07:12:31;;;;;;;12.80;4.75;;;13.00;99.90;;;;;;10519127;28;20053;-55
2024/01/27 07:17:35;;;;;;;10.70;3.85;;;13.20;99.90;;;;;;10516500;28;20059;-56
2024/01/27 07:22:37;;;;;;;16.08;6.40;;;13.80;99.90;;;;;;10524352;28;20071;-57
2024/01/27 07:27:39;;;;;;;12.60;4.37;;;13.00;99.90;;;;;;10523464;28;20133;-55
2024/01/27 07:32:44;;;;;;;12.67;5.27;;;12.80;99.90;;;;;;10520596;28;21509;-56
2024/01/27 07:37:46;;;;;;;18.48;5.28;;;13.50;99.90;;;;;;10527275;28;20853;-54
2024/01/27 07:42:48;;;;;;;18.23;6.00;;;13.50;99.90;;;;;;10512696;28;20474;-57
2024/01/27 07:47:51;;;;;;;11.57;4.53;;;13.30;99.90;;;;;;10513908;28;20051;-57
2024/01/27 07:52:53;;;;;;;21.42;5.82;;;13.50;99.90;;;;;;10507560;28;20047;-55
2024/01/27 07:57:55;;;;;;;13.90;4.40;;;13.70;99.90;;;;;;10509771;28;20048;-57
2024/01/27 08:02:59;;;;;;;17.27;5.17;;;13.70;99.90;;;;;;10504951;28;20640;-59
2024/01/27 08:08:01;;;;;;;14.43;5.38;;;13.40;99.90;;;;;;10509287;28;20527;-55
2024/01/27 08:13:03;;;;;;;20.40;5.27;;;13.20;99.90;;;;;;10508784;28;20083;-56
2024/01/27 08:18:07;;;;;;;16.77;4.70;;;13.10;99.90;;;;;;10504517;28;20797;-56
2024/01/27 08:23:09;;;;;;;14.27;5.07;;;12.20;99.90;;;;;;10504885;28;20044;-57
2024/01/27 08:28:11;;;;;;;8.32;3.13;;;12.70;99.90;;;;;;10515073;28;20521;-58
2024/01/27 08:33:14;;;;;;;10.77;3.70;;;13.30;99.90;;;;;;10504888;28;20452;-58
2024/01/27 08:38:17;;;;;;;13.00;5.28;;;13.50;99.90;;;;;;10516315;28;20062;-56
2024/01/27 08:43:19;;;;;;;14.63;4.30;;;13.70;99.90;;;;;;10513226;28;20036;-59
2024/01/27 08:48:22;;;;;;;12.07;4.27;;;13.60;99.90;;;;;;10519796;28;20055;-57
2024/01/27 08:53:24;;;;;;;9.45;4.03;;;13.50;99.90;;;;;;10514597;28;20155;-58
2024/01/27 08:58:26;;;;;;;14.20;5.10;;;13.50;99.90;;;;;;10505058;28;20048;-59
2024/01/27 09:03:30;;;;;;;16.05;5.03;;;13.60;99.90;;;;;;10517532;28;20051;-59
2024/01/27 09:08:32;;;;;;;14.18;4.82;;;13.20;99.90;;;;;;10519190;28;20051;-58
2024/01/27 09:13:34;;;;;;;21.47;5.37;;;13.50;99.90;;;;;;10526793;28;20507;-57
2024/01/27 09:18:37;;;;;;;20.00;5.13;;;12.10;99.90;;;;;;10522852;28;20060;-58
2024/01/27 09:23:39;;;;;;;16.30;4.75;;;12.00;99.90;;;;;;10523267;28;20047;-55
2024/01/27 09:28:43;;;;;;;18.20;4.50;;;12.40;99.90;;;;;;10525178;28;20059;-55
2024/01/27 09:33:47;;;;;;;17.05;4.78;;;13.00;99.90;;;;;;10516567;28;20048;-59
2024/01/27 09:38:49;;;;;;;13.55;4.82;;;13.60;99.90;;;;;;10520927;28;20051;-55
2024/01/27 09:43:54;;;;;;;14.80;4.53;;;12.70;99.90;;;;;;10517661;28;20528;-56
2024/01/27 09:48:57;;;;;;;15.00;4.82;;;11.90;99.90;;;;;;10520223;28;20570;-56
2024/01/27 09:53:59;;;;;;;21.45;5.35;;;11.40;99.90;;;;;;10510480;28;20246;-56
2024/01/27 09:59:02;;;;;;;22.25;5.70;;;11.30;99.90;;;;;;10513086;28;20044;-53
2024/01/27 10:04:08;;;;;;;21.65;4.97;;;10.30;99.90;;;;;;10516206;28;20036;-57
2024/01/27 10:09:10;;;;;;;22.10;5.43;;;11.60;99.90;;;;;;10508939;28;20056;-56
2024/01/27 10:14:12;;;;;;;16.80;4.43;;;10.80;99.90;;;;;;10497990;28;20052;-58
2024/01/27 10:19:17;;;;;;;17.30;4.53;;;12.30;99.90;;;;;;10515813;28;20414;-60
2024/01/27 10:24:19;;;;;;;11.63;4.28;;;13.50;99.90;;;;;;10522071;28;20162;-58
2024/01/27 10:29:21;;;;;;;14.83;4.87;;;14.10;99.90;;;;;;10511528;28;20488;-57
2024/01/27 10:34:25;;;;;;;13.13;4.17;;;14.20;99.90;;;;;;10515580;28;20067;-60
2024/01/27 10:39:28;;;;;;;14.30;5.28;;;14.50;99.90;;;;;;10518863;28;20565;-56
2024/01/27 10:44:30;;;;;;;19.65;4.93;;;14.90;99.90;;;;;;10509370;28;20055;-58
2024/01/27 10:49:38;;;;;;;17.42;5.57;;;14.10;99.90;;;;;;10510468;28;20903;-59
2024/01/27 10:54:42;;;;;;;18.23;5.60;;;12.20;99.90;;;;;;10516774;28;20044;-59
2024/01/27 10:59:49;;;;;;;17.98;4.45;;;13.90;99.90;;;;;;10511885;28;20808;-58
2024/01/27 11:04:54;;;;;;;21.30;4.47;;;14.60;99.90;;;;;;10504748;28;20056;-56
2024/01/27 11:09:56;;;;;;;13.95;3.90;;;14.40;99.90;;;;;;10504691;28;20051;-60
2024/01/27 11:14:59;;;;;;;19.23;4.90;;;14.40;99.90;;;;;;10497361;28;20055;-58
2024/01/27 11:20:02;;;;;;;;;;;15.20;99.90;;;;;;10509879;28;20465;-58
2024/01/27 11:25:09;;;;;;;22.20;5.50;;;15.70;99.90;;;;;;10505435;28;20019;-58
2024/01/27 11:30:28;;;;;;;15.82;4.85;;;15.40;99.90;;;;;;10501988;28;20048;-58
2024/01/27 11:35:31;;;;;;;21.75;5.03;;;14.90;99.90;;;;;;10512610;28;20048;-60
2024/01/27 11:40:34;;;;;;;21.35;5.25;;;12.30;99.90;;;;;;10510329;28;20077;-57
2024/01/27 11:45:36;;;;;;;13.95;5.20;;;11.90;99.90;;;;;;10511867;28;20047;-59
2024/01/27 11:50:39;;;;;;;25.57;5.00;;;11.70;99.90;;;;;;10513985;28;20048;-59
2024/01/27 11:55:41;;;;;;;20.08;5.57;;;11.50;99.90;;;;;;10503391;28;20055;-58
2024/01/27 12:00:43;;;;;;;26.90;6.20;;;11.40;99.90;;;;;;10520079;28;20913;-55
2024/01/27 12:05:47;;;;;;;31.73;7.28;;;10.30;99.90;;;;;;10513766;28;20055;-57
2024/01/27 12:10:49;;;;;;;21.50;5.07;;;12.00;99.90;;;;;;10505489;28;20052;-56
2024/01/27 12:15:51;;;;;;;13.30;4.43;;;11.10;99.90;;;;;;10515961;28;20043;-54
2024/01/27 12:20:58;;;;;;;17.47;3.43;;;10.40;99.90;;;;;;10505644;28;20043;-57
2024/01/27 12:26:00;;;;;;;15.75;3.10;;;10.70;99.90;;;;;;10516466;28;20221;-57
2024/01/27 12:31:05;;;;;;;15.80;2.70;;;10.90;99.90;;;;;;10511646;28;20047;-57
2024/01/27 12:36:11;;;;;;;23.48;4.47;;;9.90;99.90;;;;;;10525066;28;20457;-58
2024/01/27 12:41:13;;;;;;;31.85;7.03;;;10.30;99.90;;;;;;10520200;28;20102;-57
2024/01/27 12:46:16;;;;;;;20.65;4.65;;;10.80;99.90;;;;;;10528906;28;20050;-57
2024/01/27 12:51:19;;;;;;;20.33;5.13;;;10.80;99.90;;;;;;10522984;28;20052;-58
2024/01/27 12:56:21;;;;;;;26.63;4.57;;;11.50;99.90;;;;;;10522912;28;20590;-56
2024/01/27 13:01:23;;;;;;;20.05;3.65;;;10.90;99.90;;;;;;10528272;28;20115;-55
2024/01/27 13:06:27;;;;;;;23.48;4.90;;;9.60;99.90;;;;;;10527298;28;20063;-56
2024/01/27 13:11:29;;;;;;;16.50;3.92;;;10.70;99.90;;;;;;10532930;28;20055;-55
2024/01/27 13:16:31;;;;;;;11.05;2.60;;;10.00;99.90;;;;;;10524535;28;20054;-56
2024/01/27 13:21:34;;;;;;;18.40;3.08;;;10.60;99.90;;;;;;10519201;28;20120;-55
2024/01/27 13:26:37;;;;;;;22.88;3.50;;;10.40;99.90;;;;;;10519790;28;20104;-56
2024/01/27 13:31:39;;;;;;;16.33;2.90;;;11.30;99.90;;;;;;10519057;28;20052;-56
2024/01/27 13:36:43;;;;;;;15.80;3.30;;;10.80;99.90;;;;;;10520267;28;20857;-57
2024/01/27 13:41:45;;;;;;;17.38;3.13;;;10.60;99.90;;;;;;10525396;28;20052;-54
2024/01/27 13:46:47;;;;;;;22.58;5.38;;;10.80;99.90;;;;;;10525668;28;20346;-56
2024/01/27 13:51:50;;;;;;;19.70;4.25;;;12.60;99.90;;;;;;10524881;28;20066;-58
2024/01/27 13:56:53;;;;;;;15.35;4.75;;;13.20;99.90;;;;;;10521299;28;20043;-58
2024/01/27 14:01:56;;;;;;;26.93;4.37;;;14.30;99.90;;;;;;10525892;28;20130;-58
2024/01/27 14:07:02;;;;;;;19.63;3.83;;;14.30;99.90;;;;;;10526007;28;20056;-58
2024/01/27 14:12:05;;;;;;;26.48;4.78;;;14.90;99.90;;;;;;10505303;28;20064;-59
2024/01/27 14:17:07;;;;;;;20.52;3.53;;;14.60;99.90;;;;;;10517005;28;20097;-59
2024/01/27 14:22:10;;;;;;;19.80;4.60;;;14.20;99.90;;;;;;10513504;28;20055;-59
2024/01/27 14:27:13;;;;;;;13.50;4.53;;;15.40;99.90;;;;;;10514069;28;20493;-59
2024/01/27 14:32:15;;;;;;;24.50;4.38;;;15.80;99.90;;;;;;10514527;28;20064;-58
2024/01/27 14:37:19;;;;;;;12.27;4.07;;;15.40;99.90;;;;;;10522915;28;20055;-62
2024/01/27 14:42:21;;;;;;;18.08;3.83;;;16.00;99.90;;;;;;10523861;28;20055;-54
2024/01/27 14:47:23;;;;;;;16.07;3.10;;;16.00;99.90;;;;;;10523150;28;20043;-57
2024/01/27 14:52:26;;;;;;;24.67;4.68;;;16.30;99.90;;;;;;10516921;28;20067;-59
2024/01/27 14:57:28;;;;;;;16.92;3.38;;;16.60;99.90;;;;;;10521623;28;20183;-60
2024/01/27 15:02:30;;;;;;;22.63;4.40;;;16.80;99.90;;;;;;10522319;28;20095;-58
2024/01/27 15:07:33;;;;;;;14.40;3.57;;;16.60;99.90;;;;;;10516353;28;20050;-56
2024/01/27 15:12:36;;;;;;;21.02;4.82;;;15.70;99.90;;;;;;10525050;28;20078;-58
2024/01/27 15:17:38;;;;;;;;;;;16.80;99.90;;;;;;10520913;28;20054;-60
2024/01/27 15:22:42;;;;;;;20.40;3.83;;;16.80;99.90;;;;;;10519761;28;19928;-58
2024/01/27 15:27:44;;;;;;;16.63;4.07;;;16.20;99.90;;;;;;10517332;28;20044;-59
2024/01/27 15:32:46;;;;;;;14.60;3.73;;;16.00;99.90;;;;;;10512684;28;20441;-58
2024/01/27 15:37:50;;;;;;;14.48;2.95;;;16.00;99.90;;;;;;10514415;28;20494;-59
2024/01/27 15:42:52;;;;;;;22.75;4.28;;;16.40;99.90;;;;;;10516635;28;20044;-58
2024/01/27 15:47:56;;;;;;;14.57;4.13;;;17.00;99.90;;;;;;10511010;28;20051;-60
2024/01/27 15:52:59;;;;;;;13.85;3.30;;;17.30;99.90;;;;;;10516472;28;21335;-56
2024/01/27 15:58:01;;;;;;;15.77;4.90;;;17.50;99.90;;;;;;10525939;28;20374;-57
2024/01/27 16:03:03;;;;;;;16.48;4.35;;;17.70;99.90;;;;;;10512154;28;20056;-60
2024/01/27 16:08:10;;;;;;;22.55;4.43;;;17.70;99.90;;;;;;10511536;28;20063;-56
2024/01/27 16:13:12;;;;;;;13.98;4.35;;;17.60;99.90;;;;;;10516165;28;20116;-59
2024/01/27 16:18:14;;;;;;;15.05;4.63;;;17.50;99.90;;;;;;10507476;28;20044;-59
2024/01/27 16:23:18;;;;;;;17.10;4.30;;;17.50;99.90;;;;;;10499268;28;20418;-59
2024/01/27 16:28:20;;;;;;;17.70;5.97;;;17.30;99.90;;;;;;10522183;28;20043;-59
2024/01/27 16:33:22;;;;;;;16.85;4.75;;;17.30;99.90;;;;;;10508574;28;20044;-59
2024/01/27 16:38:25;;;;;;;17.50;4.40;;;17.20;99.90;;;;;;10518528;28;20052;-59
2024/01/27 16:43:28;;;;;;;18.05;5.45;;;17.10;99.90;;;;;;10499900;28;20162;-59
2024/01/27 16:48:31;;;;;;;23.52;6.90;;;17.30;99.90;;;;;;10514587;28;20049;-57
2024/01/27 16:53:35;;;;;;;;;;;16.60;99.90;;;;;;10512112;28;20048;-60
2024/01/27 16:58:37;;;;;;;24.67;5.20;;;15.70;99.90;;;;;;10505829;28;20576;-60
2024/01/27 17:03:39;;;;;;;28.83;8.98;;;15.80;99.90;;;;;;10520405;28;20094;-59
2024/01/27 17:08:45;;;;;;;21.80;6.97;;;16.00;99.90;;;;;;10519465;28;20079;-58
2024/01/27 17:13:48;;;;;;;23.60;7.30;;;15.80;99.90;;;;;;10516362;28;20055;-59
2024/01/27 17:18:50;;;;;;;12.63;4.95;;;16.10;99.90;;;;;;10524392;28;20167;-57
2024/01/27 17:24:00;;;;;;;15.00;5.43;;;16.10;99.90;;;;;;10521896;28;20040;-57
2024/01/27 17:29:02;;;;;;;21.70;4.80;;;16.20;99.90;;;;;;10515687;28;20063;-59
2024/01/27 17:34:04;;;;;;;17.33;6.20;;;16.50;99.90;;;;;;10517600;28;20047;-58
2024/01/27 17:39:09;;;;;;;10.82;4.03;;;16.50;99.90;;;;;;10517960;28;20058;-59
2024/01/27 17:44:11;;;;;;;13.07;4.22;;;16.60;99.90;;;;;;10524813;28;20044;-58
2024/01/27 17:49:13;;;;;;;18.45;6.82;;;16.70;99.90;;;;;;10530637;28;20440;-58
2024/01/27 17:54:17;;;;;;;25.80;4.55;;;16.60;99.90;;;;;;10525768;28;20044;-58
2024/01/27 17:59:19;;;;;;;18.98;4.72;;;16.60;99.90;;;;;;10528958;28;22757;-57
2024/01/27 18:04:20;;;;;;;11.53;3.83;;;16.50;99.90;;;;;;10528954;28;20574;-57
2024/01/27 18:09:24;;;;;;;12.70;4.10;;;16.40;99.90;;;;;;10518329;28;20059;-56
2024/01/27 18:14:26;;;;;;;17.58;5.78;;;16.30;99.90;;;;;;10530094;28;20052;-59
2024/01/27 18:19:31;;;;;;;11.45;4.00;;;16.30;99.90;;;;;;10510807;28;20058;-56
2024/01/27 18:24:34;;;;;;;7.90;3.20;;;16.20;99.90;;;;;;10514454;28;20047;-57
2024/01/27 18:29:36;;;;;;;12.32;5.22;;;16.30;99.90;;;;;;10516982;28;20635;-60
2024/01/27 18:34:38;;;;;;;13.35;4.68;;;16.20;99.90;;;;;;10515456;28;20047;-57
2024/01/27 18:39:41;;;;;;;10.40;3.37;;;16.20;99.90;;;;;;10528363;28;20048;-58
2024/01/27 18:44:43;;;;;;;13.00;4.70;;;16.20;99.90;;;;;;10519245;28;20489;-57
2024/01/27 18:49:45;;;;;;;10.90;3.83;;;16.10;99.90;;;;;;10531252;28;20058;-60
2024/01/27 18:54:49;;;;;;;18.50;5.53;;;16.10;99.90;;;;;;10518812;28;20052;-59
2024/01/27 18:59:51;;;;;;;15.35;3.70;;;16.10;99.90;;;;;;10516249;28;20508;-58
2024/01/27 19:04:53;;;;;;;18.67;4.70;;;16.00;99.90;;;;;;10521556;28;20063;-57
2024/01/27 19:09:56;;;;;;;12.60;3.75;;;16.10;99.90;;;;;;10519127;28;20055;-60
2024/01/27 19:14:58;;;;;;;24.33;6.97;;;16.00;99.90;;;;;;10518425;28;20044;-60
2024/01/27 19:20:00;;;;;;;17.07;6.60;;;16.00;99.90;;;;;;10520835;28;20059;-58
2024/01/27 19:25:04;;;;;;;19.33;4.30;;;15.90;99.90;;;;;;10518004;28;20050;-57
2024/01/27 19:30:07;;;;;;;16.30;5.75;;;16.10;99.90;;;;;;10526610;28;20047;-57
2024/01/27 19:35:10;;;;;;;16.38;4.72;;;15.90;99.90;;;;;;10514317;28;20047;-59
2024/01/27 19:40:15;;;;;;;11.50;4.35;;;16.00;99.90;;;;;;10508294;28;20150;-57
2024/01/27 19:45:17;;;;;;;9.35;3.30;;;16.00;99.90;;;;;;10527174;28;20224;-58
2024/01/27 19:50:19;;;;;;;12.60;3.58;;;16.00;99.90;;;;;;10528933;28;20379;-57
2024/01/27 19:55:22;;;;;;;10.17;3.77;;;15.90;99.90;;;;;;10514472;28;20054;-59
2024/01/27 20:00:29;;;;;;;12.93;4.28;;;15.90;99.90;;;;;;10518115;28;20862;-55
2024/01/27 20:05:31;;;;;;;10.18;3.28;;;16.00;99.90;;;;;;10511264;28;20047;-53
2024/01/27 20:10:34;;;;;;;17.07;4.87;;;15.90;99.90;;;;;;10511383;28;20078;-55
2024/01/27 20:15:36;;;;;;;15.07;4.25;;;15.90;99.90;;;;;;10511637;28;20044;-57
2024/01/27 20:20:38;;;;;;;12.47;3.87;;;15.90;99.90;;;;;;10512307;28;20985;-56
2024/01/27 20:25:42;;;;;;;17.13;4.55;;;15.90;99.90;;;;;;10505749;28;21009;-57
2024/01/27 20:30:44;;;;;;;17.23;4.68;;;15.80;99.90;;;;;;10504864;28;20059;-54
2024/01/27 20:35:46;;;;;;;10.48;3.90;;;15.80;99.90;;;;;;10516517;28;20048;-57
2024/01/27 20:40:49;;;;;;;7.67;3.50;;;15.70;99.90;;;;;;10503132;28;20053;-55
2024/01/27 20:45:51;;;;;;;11.50;3.63;;;15.60;99.90;;;;;;10500525;28;20052;-57
2024/01/27 20:50:54;;;;;;;9.67;3.63;;;15.50;99.90;;;;;;10499766;28;20056;-55
2024/01/27 20:55:57;;;;;;;;;;;15.60;99.90;;;;;;10509246;28;20177;-55
2024/01/27 21:00:59;;;;;;;10.18;3.40;;;15.70;99.90;;;;;;10518024;28;19924;-58
2024/01/27 21:06:01;;;;;;;10.10;4.03;;;15.70;99.90;;;;;;10513005;28;20044;-57
2024/01/27 21:11:08;;;;;;;10.37;3.93;;;15.60;99.90;;;;;;10518214;28;20103;-55
2024/01/27 21:16:10;;;;;;;6.70;3.35;;;15.60;99.90;;;;;;10504737;28;20052;-55
2024/01/27 21:21:13;;;;;;;15.13;5.63;;;15.50;99.90;;;;;;10513674;28;20055;-56
2024/01/27 21:26:17;;;;;;;10.38;4.32;;;15.40;99.90;;;;;;10518831;28;20051;-57
2024/01/27 21:31:19;;;;;;;13.25;5.28;;;15.30;99.90;;;;;;10509981;28;20059;-58
2024/01/27 21:36:21;;;;;;;15.05;6.32;;;15.30;99.90;;;;;;10516391;28;20224;-58
2024/01/27 21:41:25;;;;;;;13.90;4.17;;;15.40;99.90;;;;;;10509708;28;20074;-57
2024/01/27 21:46:27;;;;;;;13.48;3.95;;;15.40;99.90;;;;;;10520050;28;20107;-58
2024/01/27 21:51:30;;;;;;;7.67;2.97;;;15.50;99.90;;;;;;10511232;28;20212;-58
2024/01/27 21:56:33;;;;;;;10.15;4.00;;;15.40;99.90;;;;;;10521898;28;20036;-56
2024/01/27 22:01:35;;;;;;;11.80;3.38;;;15.50;99.90;;;;;;10522668;28;20140;-57
2024/01/27 22:06:38;;;;;;;9.53;3.57;;;15.30;99.90;;;;;;10518213;28;20055;-56
2024/01/27 22:11:46;;;;;;;8.55;3.13;;;15.30;99.90;;;;;;10521623;28;20048;-54
2024/01/27 22:16:49;;;;;;;10.02;3.65;;;15.30;99.90;;;;;;10525142;28;20052;-53
2024/01/27 22:21:53;;;;;;;10.82;4.03;;;15.30;99.90;;;;;;10529997;28;20047;-55
2024/01/27 22:26:56;;;;;;;11.82;3.75;;;15.30;99.90;;;;;;10516491;28;20121;-55
2024/01/27 22:31:59;;;;;;;6.70;2.90;;;15.50;99.90;;;;;;10513895;28;20419;-53
2024/01/27 22:37:01;;;;;;;;;;;15.30;99.90;;;;;;10515436;28;20055;-55
2024/01/27 22:42:04;;;;;;;14.50;3.97;;;15.20;99.90;;;;;;10512838;28;20267;-56
2024/01/27 22:47:06;;;;;;;9.95;3.67;;;15.20;99.90;;;;;;10501374;28;20043;-57
2024/01/27 22:52:09;;;;;;;6.30;2.77;;;15.20;99.90;;;;;;10524139;28;20044;-56
2024/01/27 22:57:12;;;;;;;8.65;3.38;;;15.20;99.90;;;;;;10516905;28;20419;-56
2024/01/27 23:02:14;;;;;;;10.32;4.93;;;15.10;99.90;;;;;;10519253;28;20062;-56
2024/01/27 23:07:16;;;;;;;17.23;4.53;;;15.10;99.90;;;;;;10519083;28;20051;-57
2024/01/27 23:12:19;;;;;;;15.73;4.20;;;15.10;99.90;;;;;;10526997;28;20489;-58
2024/01/27 23:17:21;;;;;;;11.30;4.18;;;15.00;99.90;;;;;;10522939;28;20055;-56
2024/01/27 23:22:23;;;;;;;9.37;4.03;;;15.10;99.90;;;;;;10533298;28;20660;-55
2024/01/27 23:27:27;;;;;;;11.38;3.72;;;15.10;99.90;;;;;;10527997;28;20051;-56
2024/01/27 23:32:29;;;;;;;9.38;3.22;;;14.80;99.90;;;;;;10522784;28;20052;-57
2024/01/27 23:37:31;;;;;;;10.10;3.47;;;14.80;99.90;;;;;;10524954;28;20511;-54
2024/01/27 23:42:35;;;;;;;11.47;3.73;;;14.80;99.90;;;;;;10521754;28;20067;-58
2024/01/27 23:47:37;;;;;;;8.43;3.03;;;14.90;99.90;;;;;;10520439;28;20044;-57
2024/01/27 23:52:43;;;;;;;11.00;3.80;;;14.80;99.90;;;;;;10522339;28;20440;-55
2024/01/27 23:57:47;;;;;;;9.25;3.60;;;14.60;99.90;;;;;;10526788;28;20047;-57
